createdAt,value
2022-10-05T00:01:57.968Z,78.18
2022-10-05T00:04:29.116Z,78.01
2022-10-05T00:07:00.096Z,78.24
2022-10-05T00:09:32.255Z,78.22
2022-10-05T00:12:13.767Z,78.08
2022-10-05T00:14:41.720Z,78.40
2022-10-05T00:17:15.175Z,78.18
2022-10-05T00:19:44.135Z,78.33
2022-10-05T00:22:15.638Z,78.25
2022-10-05T00:24:43.858Z,78.36
2022-10-05T00:27:17.972Z,78.41
2022-10-05T00:29:46.074Z,78.07
2022-10-05T00:32:13.962Z,78.54
2022-10-05T00:34:43.585Z,78.37
2022-10-05T00:37:12.121Z,78.17
2022-10-05T00:39:41.473Z,78.23
2022-10-05T00:42:27.033Z,78.38
2022-10-05T00:45:00.226Z,78.50
2022-10-05T00:47:37.688Z,78.87
2022-10-05T00:50:27.100Z,78.46
2022-10-05T00:53:03.436Z,78.57
2022-10-05T00:55:42.993Z,78.45
2022-10-05T00:58:23.727Z,78.35
2022-10-05T01:00:57.507Z,78.61
2022-10-05T01:03:34.201Z,78.75
2022-10-05T01:06:13.686Z,78.83
2022-10-05T01:08:52.390Z,78.40
2022-10-05T01:11:26.156Z,78.28
2022-10-05T01:14:04.617Z,78.66
2022-10-05T01:16:42.531Z,78.69
2022-10-05T01:19:27.019Z,78.46
2022-10-05T01:22:01.984Z,78.96
2022-10-05T01:24:51.405Z,79.03
2022-10-05T01:27:39.334Z,79.06
2022-10-05T01:30:12.313Z,78.80
2022-10-05T01:32:46.149Z,79.08
2022-10-05T01:35:27.664Z,78.72
2022-10-05T01:38:20.967Z,79.06
2022-10-05T01:41:00.641Z,79.06
2022-10-05T01:43:36.953Z,79.11
2022-10-05T01:46:13.742Z,78.77
2022-10-05T01:48:55.633Z,79.07
2022-10-05T01:51:37.469Z,78.81
2022-10-05T01:54:19.540Z,78.64
2022-10-05T01:56:57.935Z,78.90
2022-10-05T01:59:40.170Z,79.22
2022-10-05T02:02:12.091Z,78.91
2022-10-05T02:05:01.358Z,79.49
2022-10-05T02:07:33.859Z,79.37
2022-10-05T02:10:05.749Z,79.23
2022-10-05T02:12:38.910Z,78.95
2022-10-05T02:15:15.218Z,79.25
2022-10-05T02:17:49.503Z,79.51
2022-10-05T02:20:24.258Z,79.04
2022-10-05T02:22:54.906Z,79.16
2022-10-05T02:25:28.904Z,79.28
2022-10-05T02:28:01.861Z,79.08
2022-10-05T02:30:35.324Z,79.18
2022-10-05T02:33:11.843Z,79.28
2022-10-05T02:35:39.741Z,78.97
2022-10-05T02:41:18.446Z,79.80
2022-10-05T02:43:58.758Z,79.88
2022-10-05T02:46:34.860Z,79.66
2022-10-05T02:49:19.580Z,80.02
2022-10-05T02:51:52.505Z,79.49
2022-10-05T02:54:40.595Z,79.16
2022-10-05T02:57:17.880Z,79.30
2022-10-05T02:59:51.403Z,79.35
2022-10-05T03:02:25.034Z,79.56
2022-10-05T03:05:01.823Z,79.58
2022-10-05T03:07:34.943Z,79.47
2022-10-05T03:10:10.698Z,79.21
2022-10-05T03:12:52.262Z,79.65
2022-10-05T03:15:43.295Z,80.01
2022-10-05T03:18:23.379Z,79.89
2022-10-05T03:21:04.190Z,79.70
2022-10-05T03:23:45.599Z,79.49
2022-10-05T03:26:28.039Z,80.18
2022-10-05T03:29:30.425Z,79.72
2022-10-05T03:32:31.508Z,80.03
2022-10-05T03:35:08.025Z,80.07
2022-10-05T03:37:46.884Z,80.23
2022-10-05T03:40:27.160Z,79.93
2022-10-05T03:43:44.531Z,79.93
2022-10-05T03:46:19.476Z,79.76
2022-10-05T03:48:54.463Z,79.87
2022-10-05T03:51:32.306Z,79.87
2022-10-05T03:54:07.345Z,80.09
2022-10-05T03:56:39.825Z,79.91
2022-10-05T03:59:14.855Z,79.96
2022-10-05T04:01:50.949Z,80.43
2022-10-05T04:04:24.336Z,80.07
2022-10-05T04:06:56.046Z,80.54
2022-10-05T04:09:29.315Z,80.18
2022-10-05T04:12:04.234Z,80.65
2022-10-05T04:14:38.905Z,80.45
2022-10-05T04:17:13.099Z,80.69
2022-10-05T04:19:46.463Z,80.53
2022-10-05T04:22:22.075Z,80.37
2022-10-05T04:24:55.103Z,80.38
2022-10-05T04:27:29.180Z,80.33
2022-10-05T04:30:04.714Z,80.26
2022-10-05T04:32:38.666Z,80.35
2022-10-05T04:35:29.349Z,80.78
2022-10-05T04:38:10.251Z,80.49
2022-10-05T04:40:49.878Z,80.76
2022-10-05T04:43:25.841Z,80.63
2022-10-05T04:46:13.444Z,80.86
2022-10-05T04:48:56.876Z,80.74
2022-10-05T04:51:42.805Z,80.72
2022-10-05T04:54:25.499Z,80.71
2022-10-05T04:56:59.282Z,80.78
2022-10-05T04:59:46.931Z,81.17
2022-10-05T05:02:23.740Z,80.82
2022-10-05T05:05:08.556Z,80.81
2022-10-05T05:07:46.723Z,81.04
2022-10-05T05:10:48.063Z,81.10
2022-10-05T05:13:36.707Z,80.99
2022-10-05T05:16:11.667Z,81.11
2022-10-05T05:19:09.822Z,81.09
2022-10-05T05:21:45.373Z,81.09
2022-10-05T05:24:24.612Z,81.16
2022-10-05T05:27:11.891Z,80.98
2022-10-05T05:29:53.178Z,81.28
2022-10-05T05:32:30.089Z,81.27
2022-10-05T05:35:18.509Z,81.39
2022-10-05T05:37:56.759Z,81.37
2022-10-05T05:40:29.013Z,81.51
2022-10-05T05:43:01.386Z,81.35
2022-10-05T05:45:41.760Z,81.46
2022-10-05T05:48:20.133Z,81.58
2022-10-05T05:50:57.058Z,81.46
2022-10-05T05:53:33.008Z,81.54
2022-10-05T05:56:06.523Z,81.38
2022-10-05T05:58:44.735Z,81.40
2022-10-05T06:01:32.898Z,81.41
2022-10-05T06:04:11.940Z,81.50
2022-10-05T06:06:44.634Z,81.58
2022-10-05T06:09:21.898Z,81.50
2022-10-05T06:12:07.676Z,81.73
2022-10-05T06:14:44.292Z,81.57
2022-10-05T06:17:19.574Z,81.72
2022-10-05T06:19:49.712Z,81.52
2022-10-05T06:22:23.352Z,81.90
2022-10-05T06:25:07.145Z,81.76
2022-10-05T06:27:37.769Z,81.53
2022-10-05T06:30:13.345Z,81.83
2022-10-05T06:33:06.196Z,81.56
2022-10-05T06:35:50.290Z,81.92
2022-10-05T06:38:34.527Z,81.96
2022-10-05T06:41:12.684Z,81.82
2022-10-05T06:43:50.639Z,82.03
2022-10-05T06:46:45.339Z,81.73
2022-10-05T06:49:26.569Z,81.88
2022-10-05T06:51:59.394Z,82.00
2022-10-05T06:54:46.808Z,82.07
2022-10-05T06:57:36.592Z,81.89
2022-10-05T07:00:16.045Z,81.82
2022-10-05T07:02:54.230Z,82.18
2022-10-05T07:05:48.728Z,81.85
2022-10-05T07:08:25.788Z,81.76
2022-10-05T07:11:05.628Z,82.28
2022-10-05T07:13:52.064Z,81.90
2022-10-05T07:16:29.150Z,81.86
2022-10-05T07:19:11.409Z,82.37
2022-10-05T07:21:46.432Z,82.30
2022-10-05T07:24:27.242Z,82.35
2022-10-05T07:27:06.556Z,82.07
2022-10-05T07:29:39.232Z,82.15
2022-10-05T07:32:19.847Z,82.43
2022-10-05T07:34:58.585Z,82.50
2022-10-05T07:37:53.801Z,82.16
2022-10-05T07:40:30.442Z,82.33
2022-10-05T07:43:20.453Z,82.15
2022-10-05T07:45:54.718Z,82.36
2022-10-05T07:48:24.650Z,82.18
2022-10-05T07:51:01.148Z,82.64
2022-10-05T07:53:37.584Z,82.38
2022-10-05T07:56:13.494Z,82.23
2022-10-05T07:58:45.256Z,82.31
2022-10-05T08:01:19.607Z,82.52
2022-10-05T08:03:57.911Z,82.67
2022-10-05T08:06:40.596Z,82.55
2022-10-05T08:09:14.219Z,82.40
2022-10-05T08:11:52.561Z,82.59
2022-10-05T08:14:28.811Z,82.43
2022-10-05T08:17:01.301Z,82.72
2022-10-05T08:19:38.362Z,82.34
2022-10-05T08:22:10.719Z,82.87
2022-10-05T08:24:45.111Z,82.46
2022-10-05T08:27:18.196Z,82.76
2022-10-05T08:29:56.625Z,82.65
2022-10-05T08:32:26.935Z,82.63
2022-10-05T08:35:00.669Z,82.55
2022-10-05T08:37:35.304Z,82.44
2022-10-05T08:40:27.118Z,82.65
2022-10-05T08:43:07.295Z,82.65
2022-10-05T08:46:03.974Z,82.59
2022-10-05T08:49:05.475Z,82.43
2022-10-05T08:51:50.561Z,82.58
2022-10-05T08:54:50.874Z,82.49
2022-10-05T08:57:48.642Z,82.65
2022-10-05T09:00:20.530Z,82.63
2022-10-05T09:03:09.150Z,82.55
2022-10-05T09:06:16.542Z,82.52
2022-10-05T09:09:10.973Z,82.52
2022-10-05T09:11:47.065Z,82.48
2022-10-05T09:14:28.873Z,82.35
2022-10-05T09:17:21.181Z,82.70
2022-10-05T09:20:12.037Z,82.58
2022-10-05T09:22:58.016Z,82.38
2022-10-05T09:25:42.942Z,82.38
2022-10-05T09:28:25.819Z,82.65
2022-10-05T09:31:04.486Z,82.34
2022-10-05T09:34:01.027Z,82.26
2022-10-05T09:37:07.052Z,82.40
2022-10-05T09:40:01.213Z,82.37
2022-10-05T09:42:48.690Z,82.34
2022-10-05T09:45:58.215Z,82.35
2022-10-05T09:48:59.687Z,82.29
2022-10-05T09:52:03.107Z,82.42
2022-10-05T09:55:06.626Z,82.26
2022-10-05T09:58:12.728Z,82.17
2022-10-05T10:01:09.259Z,82.24
2022-10-05T10:04:10.415Z,82.21
2022-10-05T10:06:51.248Z,82.19
2022-10-05T10:09:38.715Z,82.14
2022-10-05T10:12:25.294Z,82.13
2022-10-05T10:15:18.160Z,82.15
2022-10-05T10:18:05.087Z,82.16
2022-10-05T10:20:42.841Z,82.08
2022-10-05T10:23:26.086Z,82.07
2022-10-05T10:26:36.666Z,81.90
2022-10-05T10:29:34.246Z,82.03
2022-10-05T10:32:18.569Z,81.98
2022-10-05T10:35:05.764Z,81.97
2022-10-05T10:38:06.068Z,81.86
2022-10-05T10:40:42.458Z,82.07
2022-10-05T10:43:39.419Z,81.87
2022-10-05T10:46:19.772Z,81.82
2022-10-05T10:48:58.487Z,81.78
2022-10-05T10:51:47.344Z,81.74
2022-10-05T10:54:40.091Z,81.79
2022-10-05T10:57:11.129Z,81.73
2022-10-05T11:00:15.559Z,81.60
2022-10-05T11:03:09.800Z,81.82
2022-10-05T11:05:58.765Z,81.59
2022-10-05T11:09:01.538Z,81.59
2022-10-05T11:11:51.372Z,81.65
2022-10-05T11:14:57.226Z,81.61
2022-10-05T11:17:54.517Z,81.49
2022-10-05T11:20:57.073Z,81.53
2022-10-05T11:23:54.416Z,81.54
2022-10-05T11:26:41.019Z,81.25
2022-10-05T11:29:31.347Z,81.38
2022-10-05T11:32:40.976Z,81.35
2022-10-05T11:35:26.893Z,81.26
2022-10-05T11:38:16.654Z,81.13
2022-10-05T11:41:22.423Z,81.24
2022-10-05T11:44:13.875Z,80.94
2022-10-05T11:46:49.330Z,81.03
2022-10-05T11:49:33.590Z,80.97
2022-10-05T11:52:09.458Z,80.99
2022-10-05T11:55:09.898Z,80.87
2022-10-05T11:57:43.599Z,80.93
2022-10-05T12:00:17.165Z,80.92
2022-10-05T12:03:18.359Z,80.85
2022-10-05T12:06:05.382Z,80.77
2022-10-05T12:08:43.685Z,80.85
2022-10-05T12:11:32.810Z,80.62
2022-10-05T12:14:07.834Z,80.55
2022-10-05T12:16:43.224Z,80.52
2022-10-05T12:19:16.665Z,80.39
2022-10-05T12:21:51.146Z,80.29
2022-10-05T12:24:27.437Z,80.42
2022-10-05T12:27:02.435Z,80.36
2022-10-05T12:29:43.109Z,80.35
2022-10-05T12:32:17.409Z,80.38
2022-10-05T12:35:01.885Z,80.34
2022-10-05T12:37:42.921Z,80.27
2022-10-05T12:40:33.095Z,80.26
2022-10-05T12:43:12.549Z,79.92
2022-10-05T12:45:54.332Z,80.19
2022-10-05T12:48:44.002Z,80.04
2022-10-05T12:54:50.574Z,79.94
2022-10-05T12:57:26.889Z,79.88
2022-10-05T13:00:03.791Z,79.63
2022-10-05T13:02:42.324Z,79.64
2022-10-05T13:05:23.578Z,79.64
2022-10-05T13:08:08.013Z,79.49
2022-10-05T13:10:39.218Z,79.58
2022-10-05T13:13:25.155Z,79.45
2022-10-05T13:16:04.320Z,79.66
2022-10-05T13:18:45.773Z,79.18
2022-10-05T13:21:19.882Z,79.18
2022-10-05T13:23:57.811Z,79.21
2022-10-05T13:26:32.477Z,79.25
2022-10-05T13:29:10.343Z,79.05
2022-10-05T13:31:45.701Z,78.91
2022-10-05T13:34:24.720Z,79.02
2022-10-05T13:37:04.908Z,78.84
2022-10-05T13:39:47.499Z,78.88
2022-10-05T13:42:17.363Z,78.86
2022-10-05T13:44:50.567Z,78.56
2022-10-05T13:47:28.935Z,78.61
2022-10-05T13:50:02.413Z,78.52
2022-10-05T13:52:46.933Z,78.52
2022-10-05T13:55:28.347Z,78.55
2022-10-05T13:58:05.866Z,78.40
2022-10-05T14:00:41.769Z,78.31
2022-10-05T14:03:31.926Z,78.21
2022-10-05T14:06:01.754Z,78.17
2022-10-05T14:08:33.312Z,78.08
2022-10-05T14:11:20.577Z,78.06
2022-10-05T14:13:50.685Z,77.85
2022-10-05T14:16:23.440Z,77.90
2022-10-05T14:18:56.178Z,77.76
2022-10-05T14:21:26.041Z,77.75
2022-10-05T14:23:56.387Z,77.54
2022-10-05T14:26:35.934Z,77.63
2022-10-05T14:29:17.054Z,77.39
2022-10-05T14:31:52.402Z,77.34
2022-10-05T14:34:31.954Z,77.42
2022-10-05T14:37:04.889Z,77.20
2022-10-05T14:39:35.697Z,77.11
2022-10-05T14:42:15.479Z,77.30
2022-10-05T14:44:43.800Z,77.16
2022-10-05T14:47:24.325Z,77.10
2022-10-05T14:50:13.939Z,77.08
2022-10-05T14:52:50.893Z,76.82
2022-10-05T14:55:31.540Z,76.88
2022-10-05T15:01:14.725Z,76.69
2022-10-05T15:03:48.430Z,76.66
2022-10-05T15:06:25.096Z,76.63
2022-10-05T15:09:09.136Z,76.51
2022-10-05T15:11:51.127Z,76.31
2022-10-05T15:14:24.095Z,76.46
2022-10-05T15:16:54.793Z,76.36
2022-10-05T15:19:28.551Z,76.31
2022-10-05T15:22:19.927Z,76.54
2022-10-05T15:25:01.820Z,76.15
2022-10-05T15:27:36.731Z,76.23
2022-10-05T15:30:10.508Z,76.15
2022-10-05T15:32:46.799Z,76.03
2022-10-05T15:35:38.320Z,75.92
2022-10-05T15:38:20.944Z,75.95
2022-10-05T15:41:06.777Z,75.84
2022-10-05T15:43:47.701Z,75.82
2022-10-05T15:46:22.155Z,75.66
2022-10-05T15:48:57.737Z,75.61
2022-10-05T15:51:45.172Z,75.54
2022-10-05T15:54:44.354Z,75.45
2022-10-05T15:57:19.991Z,75.50
2022-10-05T15:59:58.855Z,75.51
2022-10-05T16:02:35.893Z,75.54
2022-10-05T16:05:19.877Z,75.41
2022-10-05T16:08:10.813Z,75.41
2022-10-05T16:10:45.357Z,75.26
2022-10-05T16:13:27.968Z,74.99
2022-10-05T16:16:02.014Z,75.29
2022-10-05T16:18:48.802Z,75.05
2022-10-05T16:21:27.779Z,75.02
2022-10-05T16:24:06.328Z,75.11
2022-10-05T16:26:46.045Z,75.28
2022-10-05T16:29:21.074Z,74.75
2022-10-05T16:31:57.798Z,74.93
2022-10-05T16:34:41.268Z,74.69
2022-10-05T16:37:18.346Z,74.62
2022-10-05T16:39:53.812Z,74.59
2022-10-05T16:42:43.030Z,74.59
2022-10-05T16:45:28.322Z,74.69
2022-10-05T16:48:06.025Z,74.48
2022-10-05T16:50:40.548Z,74.70
2022-10-05T16:53:16.319Z,74.47
2022-10-05T16:55:49.465Z,74.49
2022-10-05T16:58:25.577Z,74.48
2022-10-05T17:01:05.650Z,74.51
2022-10-05T17:03:46.669Z,74.51
2022-10-05T17:06:46.986Z,74.50
2022-10-05T17:09:38.169Z,74.38
2022-10-05T17:12:27.615Z,74.15
2022-10-05T17:15:10.199Z,74.05
2022-10-05T17:17:50.686Z,74.08
2022-10-05T17:20:30.188Z,74.27
2022-10-05T17:23:16.980Z,74.22
2022-10-05T17:25:48.048Z,74.07
2022-10-05T17:28:37.010Z,74.09
2022-10-05T17:31:25.608Z,74.14
2022-10-05T17:34:27.331Z,73.97
2022-10-05T17:36:59.777Z,74.09
2022-10-05T17:39:42.350Z,73.94
2022-10-05T17:42:49.150Z,74.00
2022-10-05T17:45:53.874Z,73.95
2022-10-05T17:49:07.680Z,73.87
2022-10-05T17:52:20.440Z,73.96
2022-10-05T17:55:27.263Z,73.71
2022-10-05T17:58:01.181Z,73.90
2022-10-05T18:00:42.101Z,74.07
2022-10-05T18:03:41.778Z,73.53
2022-10-05T18:06:33.260Z,73.76
2022-10-05T18:09:37.623Z,73.68
2022-10-05T18:12:28.692Z,73.69
2022-10-05T18:15:14.007Z,73.80
2022-10-05T18:17:45.344Z,73.77
2022-10-05T18:20:19.031Z,73.58
2022-10-05T18:22:47.312Z,73.53
2022-10-05T18:25:27.303Z,73.62
2022-10-05T18:28:09.964Z,73.66
2022-10-05T18:30:41.478Z,73.60
2022-10-05T18:33:33.636Z,73.39
2022-10-05T18:36:21.067Z,73.36
2022-10-05T18:38:57.074Z,73.53
2022-10-05T18:41:39.927Z,73.51
2022-10-05T18:44:26.763Z,73.45
2022-10-05T18:47:03.065Z,73.58
2022-10-05T18:49:53.932Z,73.43
2022-10-05T18:52:31.762Z,73.50
2022-10-05T18:55:12.643Z,73.48
2022-10-05T18:57:59.204Z,73.43
2022-10-05T19:00:36.321Z,73.45
2022-10-05T19:03:15.743Z,73.31
2022-10-05T19:05:52.816Z,73.37
2022-10-05T19:08:29.970Z,73.16
2022-10-05T19:11:06.933Z,73.34
2022-10-05T19:13:45.112Z,73.42
2022-10-05T19:16:28.030Z,73.22
2022-10-05T19:19:12.347Z,73.22
2022-10-05T19:21:49.817Z,73.10
2022-10-05T19:24:41.703Z,73.13
2022-10-05T19:27:16.399Z,73.34
2022-10-05T19:30:03.738Z,73.25
2022-10-05T19:32:40.936Z,73.11
2022-10-05T19:35:21.071Z,73.20
2022-10-05T19:38:00.594Z,73.15
2022-10-05T19:40:35.748Z,73.00
2022-10-05T19:43:22.234Z,72.97
2022-10-05T19:46:04.298Z,73.07
2022-10-05T19:48:43.103Z,73.03
2022-10-05T19:51:19.471Z,73.12
2022-10-05T19:53:50.467Z,73.35
2022-10-05T19:56:22.581Z,73.20
2022-10-05T19:58:53.116Z,73.03
2022-10-05T20:01:27.518Z,73.37
2022-10-05T20:03:57.489Z,73.19
2022-10-05T20:06:26.895Z,73.27
2022-10-05T20:09:00.081Z,73.18
2022-10-05T20:11:31.168Z,73.02
2022-10-05T20:14:19.366Z,73.10
2022-10-05T20:17:06.904Z,73.17
2022-10-05T20:19:57.290Z,73.00
2022-10-05T20:22:32.757Z,73.01
2022-10-05T20:25:02.475Z,73.25
2022-10-05T20:27:48.458Z,73.20
2022-10-05T20:30:18.810Z,72.99
2022-10-05T20:32:50.474Z,73.15
2022-10-05T20:35:18.907Z,73.09
2022-10-05T20:37:46.579Z,73.33
2022-10-05T20:40:15.361Z,73.25
2022-10-05T20:42:43.135Z,73.18
2022-10-05T20:45:11.875Z,73.24
2022-10-05T20:47:40.602Z,73.32
2022-10-05T20:50:11.284Z,73.26
2022-10-05T20:52:39.388Z,73.25
2022-10-05T20:55:09.250Z,73.32
2022-10-05T20:57:41.704Z,73.41
2022-10-05T21:00:09.642Z,73.42
2022-10-05T21:02:38.035Z,73.48
2022-10-05T21:05:07.972Z,73.29
2022-10-05T21:07:37.075Z,73.37
2022-10-05T21:10:05.731Z,73.53
2022-10-05T21:12:33.959Z,73.50
2022-10-05T21:15:04.635Z,73.36
2022-10-05T21:17:33.198Z,73.67
2022-10-05T21:20:00.974Z,73.56
2022-10-05T21:22:28.739Z,73.40
2022-10-05T21:24:58.398Z,73.59
2022-10-05T21:27:26.230Z,73.68
2022-10-05T21:29:54.367Z,73.61
2022-10-05T21:32:22.142Z,73.50
2022-10-05T21:34:50.128Z,73.60
2022-10-05T21:37:18.185Z,73.83
2022-10-05T21:39:45.879Z,73.55
2022-10-05T21:42:15.049Z,73.61
2022-10-05T21:44:42.890Z,73.45
2022-10-05T21:47:10.774Z,73.73
2022-10-05T21:49:38.743Z,73.69
2022-10-05T21:52:06.685Z,73.86
2022-10-05T21:54:35.040Z,73.98
2022-10-05T21:57:03.288Z,73.64
2022-10-05T21:59:35.250Z,73.69
2022-10-05T22:06:37.122Z,73.65
2022-10-05T22:09:06.973Z,73.85
2022-10-05T22:11:41.011Z,73.96
2022-10-05T22:14:09.197Z,73.82
2022-10-05T22:16:40.125Z,73.89
2022-10-05T22:19:14.952Z,73.83
2022-10-05T22:21:44.189Z,73.64
2022-10-05T22:24:12.463Z,73.89
2022-10-05T22:26:44.035Z,74.00
2022-10-05T22:29:11.872Z,73.83
2022-10-05T22:31:40.232Z,73.89
2022-10-05T22:34:08.370Z,73.93
2022-10-05T22:36:37.288Z,74.00
2022-10-05T22:39:11.011Z,73.97
2022-10-05T22:41:39.190Z,74.09
2022-10-05T22:44:07.216Z,73.93
2022-10-05T22:46:35.278Z,74.04
2022-10-05T22:49:03.263Z,73.96
2022-10-05T22:51:31.176Z,74.10
2022-10-05T22:53:58.989Z,73.91
2022-10-05T22:56:28.501Z,74.07
2022-10-05T22:58:58.918Z,73.96
2022-10-05T23:01:27.105Z,74.30
2022-10-05T23:03:55.631Z,74.27
2022-10-05T23:06:24.049Z,74.11
2022-10-05T23:08:51.792Z,74.12
2022-10-05T23:11:21.887Z,74.11
2022-10-05T23:13:52.121Z,74.15
2022-10-05T23:16:22.937Z,74.15
2022-10-05T23:18:52.914Z,74.19
2022-10-05T23:21:22.592Z,74.10
2022-10-05T23:23:51.361Z,74.10
2022-10-05T23:26:22.434Z,74.05
2022-10-05T23:28:51.735Z,74.19
2022-10-05T23:31:21.305Z,74.07
2022-10-05T23:33:49.783Z,74.32
2022-10-05T23:36:19.687Z,74.17
2022-10-05T23:38:47.997Z,74.22
2022-10-05T23:41:16.990Z,74.33
2022-10-05T23:43:45.231Z,74.15
2022-10-05T23:46:15.490Z,74.12
2022-10-05T23:48:43.398Z,74.36
2022-10-05T23:51:13.489Z,74.15
2022-10-05T23:53:41.469Z,74.30
2022-10-05T23:56:10.170Z,74.23
2022-10-05T23:58:38.117Z,74.13
